Polis, Cyprus
Current Conditions -  °F | °C
As of 10:30 AM on Sunday 26 Oct 2014 (Local Time) from LCPH Reporting Station
Few Clouds Few Clouds  
Wind Chill: 25°   Ceiling: Unl
Heat Index: 26°   Visibility: 6mi
Dew Point: 18°   Wind: 3mph
Humidity: 65%   Direction: 160°SSE
Pressure: 30"   Gusts: NA
Location:  35.03°N, 32.41°E
Report Text: LCPH 260730Z 16003KT 110V210 9999 FEW025TCU 25/18 Q1016
Loading
Personal Weather Stations






























Interactive Weather Map
Tropical Storm Tracking
New forecast layout! Learn more

10-Day Weather Forecast

Advertisements
Track Severe Weather on mobile